sensor_id;sensor_type;location;lat;lon;timestamp;pressure;altitude;pressure_sealevel;temperature;humidity
71601;BME280;59446;52.192;4.628;2023-03-04T00:00:36;102813.47;;;16.90;47.60
71601;BME280;59446;52.192;4.628;2023-03-04T00:03:01;102815.19;;;16.91;48.04
71601;BME280;59446;52.192;4.628;2023-03-04T00:05:27;102820.56;;;16.86;48.08
71601;BME280;59446;52.192;4.628;2023-03-04T00:07:52;102810.81;;;16.90;48.06
71601;BME280;59446;52.192;4.628;2023-03-04T00:10:18;102818.69;;;16.91;47.83
71601;BME280;59446;52.192;4.628;2023-03-04T00:12:43;102812.56;;;16.91;48.31
71601;BME280;59446;52.192;4.628;2023-03-04T00:15:09;102816.94;;;16.90;48.08
71601;BME280;59446;52.192;4.628;2023-03-04T00:17:34;102813.59;;;16.84;48.36
71601;BME280;59446;52.192;4.628;2023-03-04T00:19:59;102813.66;;;16.82;48.23
71601;BME280;59446;52.192;4.628;2023-03-04T00:22:25;102815.34;;;16.85;48.48
71601;BME280;59446;52.192;4.628;2023-03-04T00:24:50;102817.09;;;16.84;48.58
71601;BME280;59446;52.192;4.628;2023-03-04T00:27:15;102818.00;;;16.83;48.16
71601;BME280;59446;52.192;4.628;2023-03-04T00:29:41;102815.41;;;16.82;48.65
71601;BME280;59446;52.192;4.628;2023-03-04T00:32:06;102818.88;;;16.84;48.35
71601;BME280;59446;52.192;4.628;2023-03-04T00:34:32;102811.06;;;16.81;48.20
71601;BME280;59446;52.192;4.628;2023-03-04T00:36:57;102813.66;;;16.82;48.27
71601;BME280;59446;52.192;4.628;2023-03-04T00:39:28;102811.94;;;16.80;48.18
71601;BME280;59446;52.192;4.628;2023-03-04T00:41:54;102813.72;;;16.79;48.54
71601;BME280;59446;52.192;4.628;2023-03-04T00:44:20;102813.69;;;16.81;48.08
71601;BME280;59446;52.192;4.628;2023-03-04T00:46:45;102809.31;;;16.80;48.72
71601;BME280;59446;52.192;4.628;2023-03-04T00:49:10;102811.09;;;16.78;48.91
71601;BME280;59446;52.192;4.628;2023-03-04T00:51:36;102814.59;;;16.78;48.27
71601;BME280;59446;52.192;4.628;2023-03-04T00:54:01;102820.75;;;16.77;48.44
71601;BME280;59446;52.192;4.628;2023-03-04T00:56:27;102815.56;;;16.74;48.42
71601;BME280;59446;52.192;4.628;2023-03-04T00:58:52;102809.47;;;16.72;48.78
71601;BME280;59446;52.192;4.628;2023-03-04T01:01:18;102812.13;;;16.71;48.53
71601;BME280;59446;52.192;4.628;2023-03-04T01:03:43;102814.69;;;16.74;48.29
71601;BME280;59446;52.192;4.628;2023-03-04T01:06:09;102818.22;;;16.73;48.83
71601;BME280;59446;52.192;4.628;2023-03-04T01:08:35;102818.22;;;16.73;48.56
71601;BME280;59446;52.192;4.628;2023-03-04T01:11:01;102819.97;;;16.74;48.41
71601;BME280;59446;52.192;4.628;2023-03-04T01:13:26;102821.78;;;16.70;48.52
71601;BME280;59446;52.192;4.628;2023-03-04T01:15:51;102816.53;;;16.70;48.79
71601;BME280;59446;52.192;4.628;2023-03-04T01:18:17;102816.59;;;16.67;48.73
71601;BME280;59446;52.192;4.628;2023-03-04T01:20:42;102809.50;;;16.71;48.65
71601;BME280;59446;52.192;4.628;2023-03-04T01:23:07;102810.44;;;16.68;48.71
71601;BME280;59446;52.192;4.628;2023-03-04T01:25:33;102807.84;;;16.66;48.92
71601;BME280;59446;52.192;4.628;2023-03-04T01:27:58;102799.13;;;16.64;49.30
71601;BME280;59446;52.192;4.628;2023-03-04T01:30:23;102792.16;;;16.63;49.10
71601;BME280;59446;52.192;4.628;2023-03-04T01:32:49;102796.47;;;16.66;48.72
71601;BME280;59446;52.192;4.628;2023-03-04T01:35:14;102788.66;;;16.63;49.02
71601;BME280;59446;52.192;4.628;2023-03-04T01:37:40;102786.88;;;16.63;49.16
71601;BME280;59446;52.192;4.628;2023-03-04T01:40:06;102793.03;;;16.62;49.08
71601;BME280;59446;52.192;4.628;2023-03-04T01:42:33;102788.66;;;16.61;49.08
71601;BME280;59446;52.192;4.628;2023-03-04T01:45:00;102789.56;;;16.60;48.71
71601;BME280;59446;52.192;4.628;2023-03-04T01:47:30;102789.56;;;16.60;49.32
71601;BME280;59446;52.192;4.628;2023-03-04T01:49:57;102777.25;;;16.62;48.92
71601;BME280;59446;52.192;4.628;2023-03-04T01:52:26;102776.44;;;16.59;48.86
71601;BME280;59446;52.192;4.628;2023-03-04T01:54:52;102776.47;;;16.57;48.67
71601;BME280;59446;52.192;4.628;2023-03-04T01:57:20;102765.03;;;16.60;49.29
71601;BME280;59446;52.192;4.628;2023-03-04T01:59:47;102759.78;;;16.58;49.21
71601;BME280;59446;52.192;4.628;2023-03-04T02:02:31;102762.38;;;16.60;48.91
71601;BME280;59446;52.192;4.628;2023-03-04T02:04:57;102758.97;;;16.56;49.10
71601;BME280;59446;52.192;4.628;2023-03-04T02:07:22;102757.19;;;16.57;48.74
71601;BME280;59446;52.192;4.628;2023-03-04T02:09:48;102744.06;;;16.57;49.00
71601;BME280;59446;52.192;4.628;2023-03-04T02:12:13;102747.59;;;16.56;49.24
71601;BME280;59446;52.192;4.628;2023-03-04T02:14:39;102743.22;;;16.53;49.24
71601;BME280;59446;52.192;4.628;2023-03-04T02:17:10;102731.00;;;16.51;49.34
71601;BME280;59446;52.192;4.628;2023-03-04T02:22:10;102736.31;;;16.49;49.09
71601;BME280;59446;52.192;4.628;2023-03-04T02:24:42;102732.81;;;16.49;49.04
71601;BME280;59446;52.192;4.628;2023-03-04T02:27:09;102729.31;;;16.48;49.16
71601;BME280;59446;52.192;4.628;2023-03-04T02:29:35;102721.31;;;16.53;48.79
71601;BME280;59446;52.192;4.628;2023-03-04T02:32:01;102717.91;;;16.49;48.96
71601;BME280;59446;52.192;4.628;2023-03-04T02:34:34;102725.72;;;16.52;49.15
71601;BME280;59446;52.192;4.628;2023-03-04T02:37:02;102727.59;;;16.47;48.95
71601;BME280;59446;52.192;4.628;2023-03-04T02:39:33;102713.63;;;16.45;49.07
71601;BME280;59446;52.192;4.628;2023-03-04T02:41:59;102712.72;;;16.46;49.03
71601;BME280;59446;52.192;4.628;2023-03-04T02:44:28;102715.38;;;16.45;49.43
71601;BME280;59446;52.192;4.628;2023-03-04T02:46:54;102711.84;;;16.46;49.40
71601;BME280;59446;52.192;4.628;2023-03-04T02:49:21;102712.84;;;16.42;48.77
71601;BME280;59446;52.192;4.628;2023-03-04T02:51:50;102712.72;;;16.46;49.54
71601;BME280;59446;52.192;4.628;2023-03-04T02:54:18;102713.69;;;16.42;49.31
71601;BME280;59446;52.192;4.628;2023-03-04T02:56:45;102711.09;;;16.41;49.10
71601;BME280;59446;52.192;4.628;2023-03-04T02:59:11;102702.34;;;16.40;49.20
71601;BME280;59446;52.192;4.628;2023-03-04T03:01:37;102703.19;;;16.42;48.99
71601;BME280;59446;52.192;4.628;2023-03-04T03:04:02;102704.97;;;16.40;49.23
71601;BME280;59446;52.192;4.628;2023-03-04T03:06:27;102706.78;;;16.38;49.30
71601;BME280;59446;52.192;4.628;2023-03-04T03:08:53;102705.06;;;16.37;49.70
71601;BME280;59446;52.192;4.628;2023-03-04T03:11:18;102706.81;;;16.36;49.37
71601;BME280;59446;52.192;4.628;2023-03-04T03:13:44;102703.25;;;16.39;49.28
71601;BME280;59446;52.192;4.628;2023-03-04T03:16:12;102706.84;;;16.35;49.16
71601;BME280;59446;52.192;4.628;2023-03-04T03:18:37;102703.31;;;16.36;48.99
71601;BME280;59446;52.192;4.628;2023-03-04T03:21:03;102706.84;;;16.35;49.18
71601;BME280;59446;52.192;4.628;2023-03-04T03:23:28;102697.19;;;16.35;49.16
71601;BME280;59446;52.192;4.628;2023-03-04T03:25:54;102709.44;;;16.36;49.03
71601;BME280;59446;52.192;4.628;2023-03-04T03:28:19;102706.91;;;16.32;49.27
71601;BME280;59446;52.192;4.628;2023-03-04T03:30:44;102704.22;;;16.35;48.92
71601;BME280;59446;52.192;4.628;2023-03-04T03:33:10;102694.63;;;16.34;48.90
71601;BME280;59446;52.192;4.628;2023-03-04T03:35:35;102699.00;;;16.32;49.24
71601;BME280;59446;52.192;4.628;2023-03-04T03:38:01;102699.03;;;16.30;49.62
71601;BME280;59446;52.192;4.628;2023-03-04T03:40:26;102698.19;;;16.30;49.49
71601;BME280;59446;52.192;4.628;2023-03-04T03:42:52;102704.28;;;16.32;49.48
71601;BME280;59446;52.192;4.628;2023-03-04T03:45:17;102697.25;;;16.32;49.49
71601;BME280;59446;52.192;4.628;2023-03-04T03:47:43;102700.78;;;16.31;49.46
71601;BME280;59446;52.192;4.628;2023-03-04T03:50:09;102699.13;;;16.27;49.61
71601;BME280;59446;52.192;4.628;2023-03-04T03:52:35;102699.94;;;16.29;49.51
71601;BME280;59446;52.192;4.628;2023-03-04T03:55:00;102701.72;;;16.29;49.08
71601;BME280;59446;52.192;4.628;2023-03-04T03:57:27;102704.34;;;16.29;49.23
71601;BME280;59446;52.192;4.628;2023-03-04T03:59:52;102704.34;;;16.29;49.44
71601;BME280;59446;52.192;4.628;2023-03-04T04:02:18;102705.19;;;16.29;49.28
71601;BME280;59446;52.192;4.628;2023-03-04T04:04:43;102704.41;;;16.26;49.23
71601;BME280;59446;52.192;4.628;2023-03-04T04:07:08;102709.75;;;16.23;49.65
71601;BME280;59446;52.192;4.628;2023-03-04T04:09:34;102707.91;;;16.26;49.19
71601;BME280;59446;52.192;4.628;2023-03-04T04:11:59;102701.81;;;16.24;49.51
71601;BME280;59446;52.192;4.628;2023-03-04T04:14:24;102704.53;;;16.21;49.60
71601;BME280;59446;52.192;4.628;2023-03-04T04:16:50;102704.41;;;16.26;49.59
71601;BME280;59446;52.192;4.628;2023-03-04T04:19:17;102704.53;;;16.21;49.64
71601;BME280;59446;52.192;4.628;2023-03-04T04:21:42;102703.66;;;16.21;49.45
71601;BME280;59446;52.192;4.628;2023-03-04T04:24:08;102707.13;;;16.23;49.22
71601;BME280;59446;52.192;4.628;2023-03-04T04:26:33;102701.00;;;16.22;49.07
71601;BME280;59446;52.192;4.628;2023-03-04T04:28:59;102705.38;;;16.22;49.70
71601;BME280;59446;52.192;4.628;2023-03-04T04:31:24;102696.72;;;16.18;49.66
71601;BME280;59446;52.192;4.628;2023-03-04T04:33:49;102702.00;;;16.17;49.43
71601;BME280;59446;52.192;4.628;2023-03-04T04:36:15;102691.44;;;16.18;49.14
71601;BME280;59446;52.192;4.628;2023-03-04T04:38:41;102688.78;;;16.20;49.50
71601;BME280;59446;52.192;4.628;2023-03-04T04:41:16;102695.91;;;16.15;49.73
71601;BME280;59446;52.192;4.628;2023-03-04T04:43:43;102697.66;;;16.16;49.88
71601;BME280;59446;52.192;4.628;2023-03-04T04:46:08;102696.81;;;16.14;49.81
71601;BME280;59446;52.192;4.628;2023-03-04T04:48:33;102695.13;;;16.11;49.49
71601;BME280;59446;52.192;4.628;2023-03-04T04:50:59;102692.50;;;16.11;49.42
71601;BME280;59446;52.192;4.628;2023-03-04T04:53:24;102696.84;;;16.12;49.50
71601;BME280;59446;52.192;4.628;2023-03-04T04:55:50;102692.41;;;16.14;49.40
71601;BME280;59446;52.192;4.628;2023-03-04T04:58:15;102697.75;;;16.11;50.00
71601;BME280;59446;52.192;4.628;2023-03-04T05:00:41;102697.75;;;16.11;49.84
71601;BME280;59446;52.192;4.628;2023-03-04T05:03:06;102703.88;;;16.10;49.27
71601;BME280;59446;52.192;4.628;2023-03-04T05:05:31;102705.63;;;16.10;49.47
71601;BME280;59446;52.192;4.628;2023-03-04T05:07:57;102707.41;;;16.11;49.22
71601;BME280;59446;52.192;4.628;2023-03-04T05:10:22;102710.88;;;16.11;49.53
71601;BME280;59446;52.192;4.628;2023-03-04T05:12:48;102712.69;;;16.08;49.46
71601;BME280;59446;52.192;4.628;2023-03-04T05:15:14;102703.03;;;16.08;49.56
71601;BME280;59446;52.192;4.628;2023-03-04T05:17:40;102712.75;;;16.04;49.58
71601;BME280;59446;52.192;4.628;2023-03-04T05:20:05;102710.03;;;16.09;49.61
71601;BME280;59446;52.192;4.628;2023-03-04T05:22:31;102712.75;;;16.04;49.75
71601;BME280;59446;52.192;4.628;2023-03-04T05:24:57;102718.84;;;16.06;49.84
71601;BME280;59446;52.192;4.628;2023-03-04T05:27:22;102708.34;;;16.06;49.43
71601;BME280;59446;52.192;4.628;2023-03-04T05:29:47;102706.53;;;16.09;49.42
71601;BME280;59446;52.192;4.628;2023-03-04T05:32:13;102706.56;;;16.07;49.41
71601;BME280;59446;52.192;4.628;2023-03-04T05:34:38;102700.53;;;16.03;49.29
71601;BME280;59446;52.192;4.628;2023-03-04T05:37:04;102704.84;;;16.06;49.74
71601;BME280;59446;52.192;4.628;2023-03-04T05:39:29;102702.28;;;16.03;49.52
71601;BME280;59446;52.192;4.628;2023-03-04T05:41:55;102697.00;;;16.04;49.72
71601;BME280;59446;52.192;4.628;2023-03-04T05:44:20;102698.78;;;16.02;49.87
71601;BME280;59446;52.192;4.628;2023-03-04T05:46:45;102707.56;;;16.01;49.50
71601;BME280;59446;52.192;4.628;2023-03-04T05:49:11;102709.38;;;15.99;49.27
71601;BME280;59446;52.192;4.628;2023-03-04T05:51:36;102707.66;;;15.98;49.92
71601;BME280;59446;52.192;4.628;2023-03-04T05:54:02;102700.63;;;15.99;49.80
71601;BME280;59446;52.192;4.628;2023-03-04T05:56:27;102697.94;;;16.02;49.20
71601;BME280;59446;52.192;4.628;2023-03-04T05:58:56;102692.78;;;15.97;49.85
71601;BME280;59446;52.192;4.628;2023-03-04T06:01:22;102691.88;;;15.98;49.52
71601;BME280;59446;52.192;4.628;2023-03-04T06:03:48;102696.25;;;15.99;49.41
71601;BME280;59446;52.192;4.628;2023-03-04T06:06:13;102698.94;;;15.96;49.92
71601;BME280;59446;52.192;4.628;2023-03-04T06:08:38;102700.66;;;15.97;49.98
71601;BME280;59446;52.192;4.628;2023-03-04T06:11:04;102694.50;;;15.98;49.93
71601;BME280;59446;52.192;4.628;2023-03-04T06:13:30;102684.06;;;15.95;49.31
71601;BME280;59446;52.192;4.628;2023-03-04T06:15:57;102691.00;;;15.98;49.73
71601;BME280;59446;52.192;4.628;2023-03-04T06:18:23;102690.22;;;15.94;49.74
71601;BME280;59446;52.192;4.628;2023-03-04T06:20:49;102692.84;;;15.94;49.80
71601;BME280;59446;52.192;4.628;2023-03-04T06:23:15;102686.69;;;15.95;49.47
71601;BME280;59446;52.192;4.628;2023-03-04T06:25:40;102692.75;;;15.99;49.47
71601;BME280;59446;52.192;4.628;2023-03-04T06:28:05;102698.97;;;15.95;49.48
71601;BME280;59446;52.192;4.628;2023-03-04T06:30:31;102701.56;;;15.96;49.66
71601;BME280;59446;52.192;4.628;2023-03-04T06:32:56;102699.88;;;15.94;49.51
71601;BME280;59446;52.192;4.628;2023-03-04T06:35:22;102704.19;;;15.96;49.38
71601;BME280;59446;52.192;4.628;2023-03-04T06:37:47;102700.69;;;15.96;49.29
71601;BME280;59446;52.192;4.628;2023-03-04T06:40:13;102709.44;;;15.96;49.39
71601;BME280;59446;52.192;4.628;2023-03-04T06:42:39;102714.78;;;15.92;49.80
71601;BME280;59446;52.192;4.628;2023-03-04T06:45:05;102713.91;;;15.93;49.82
71601;BME280;59446;52.192;4.628;2023-03-04T06:47:30;102714.84;;;15.90;49.48
71601;BME280;59446;52.192;4.628;2023-03-04T06:49:56;102721.78;;;15.93;49.88
71601;BME280;59446;52.192;4.628;2023-03-04T06:52:21;102733.19;;;15.92;49.87
71601;BME280;59446;52.192;4.628;2023-03-04T06:54:47;102734.09;;;15.91;49.37
71601;BME280;59446;52.192;4.628;2023-03-04T06:57:12;102727.97;;;15.90;49.43
71601;BME280;59446;52.192;4.628;2023-03-04T06:59:38;102721.81;;;15.91;49.33
71601;BME280;59446;52.192;4.628;2023-03-04T07:02:04;102731.53;;;15.86;50.00
71601;BME280;59446;52.192;4.628;2023-03-04T07:04:30;102728.00;;;15.87;49.91
71601;BME280;59446;52.192;4.628;2023-03-04T07:06:56;102731.50;;;15.89;49.62
71601;BME280;59446;52.192;4.628;2023-03-04T07:09:21;102733.25;;;15.89;49.90
71601;BME280;59446;52.192;4.628;2023-03-04T07:11:47;102732.38;;;15.87;49.46
71601;BME280;59446;52.192;4.628;2023-03-04T07:14:13;102729.84;;;15.84;49.56
71601;BME280;59446;52.192;4.628;2023-03-04T07:16:38;102736.84;;;15.83;49.61
71601;BME280;59446;52.192;4.628;2023-03-04T07:19:04;102734.13;;;15.88;49.58
71601;BME280;59446;52.192;4.628;2023-03-04T07:21:29;102731.50;;;15.89;49.41
71601;BME280;59446;52.192;4.628;2023-03-04T07:23:54;102735.94;;;15.84;49.59
71601;BME280;59446;52.192;4.628;2023-03-04T07:26:20;102739.41;;;15.86;49.82
71601;BME280;59446;52.192;4.628;2023-03-04T07:28:45;102743.81;;;15.86;49.53
71601;BME280;59446;52.192;4.628;2023-03-04T07:33:48;102741.25;;;15.83;49.61
71601;BME280;59446;52.192;4.628;2023-03-04T07:36:13;102738.59;;;15.83;49.60
71601;BME280;59446;52.192;4.628;2023-03-04T07:38:43;102741.13;;;15.87;49.96
71601;BME280;59446;52.192;4.628;2023-03-04T07:41:08;102747.88;;;16.00;49.56
71601;BME280;59446;52.192;4.628;2023-03-04T07:43:34;102746.97;;;16.03;49.50
71601;BME280;59446;52.192;4.628;2023-03-04T07:46:00;102752.19;;;16.04;49.51
71601;BME280;59446;52.192;4.628;2023-03-04T07:48:26;102753.81;;;16.10;49.28
71601;BME280;59446;52.192;4.628;2023-03-04T07:51:06;102749.44;;;16.11;49.10
71601;BME280;59446;52.192;4.628;2023-03-04T07:53:33;102751.19;;;16.12;48.86
71601;BME280;59446;52.192;4.628;2023-03-04T07:55:58;102765.19;;;16.12;48.53
71601;BME280;59446;52.192;4.628;2023-03-04T07:58:24;102764.31;;;16.10;48.35
71601;BME280;59446;52.192;4.628;2023-03-04T08:00:49;102753.81;;;16.12;48.57
71601;BME280;59446;52.192;4.628;2023-03-04T08:03:15;102756.22;;;16.21;48.86
71601;BME280;59446;52.192;4.628;2023-03-04T08:05:40;102763.09;;;16.26;48.50
71601;BME280;59446;52.192;4.628;2023-03-04T08:08:06;102764.72;;;16.33;48.09
71601;BME280;59446;52.192;4.628;2023-03-04T08:10:32;102761.22;;;16.33;48.38
71601;BME280;59446;52.192;4.628;2023-03-04T08:12:58;102759.38;;;16.38;49.01
71601;BME280;59446;52.192;4.628;2023-03-04T08:15:23;102757.19;;;16.57;48.36
71601;BME280;59446;52.192;4.628;2023-03-04T08:17:51;102761.41;;;16.65;48.10
71601;BME280;59446;52.192;4.628;2023-03-04T08:20:17;102754.22;;;16.72;47.92
71601;BME280;59446;52.192;4.628;2023-03-04T08:22:42;102752.22;;;16.83;47.99
71601;BME280;59446;52.192;4.628;2023-03-04T08:25:08;102753.72;;;16.93;48.45
71601;BME280;59446;52.192;4.628;2023-03-04T08:27:33;102744.75;;;17.01;48.02
71601;BME280;59446;52.192;4.628;2023-03-04T08:29:59;102749.16;;;17.02;48.05
71601;BME280;59446;52.192;4.628;2023-03-04T08:32:24;102753.09;;;17.18;47.90
71601;BME280;59446;52.192;4.628;2023-03-04T08:34:49;102755.47;;;17.28;48.10
71601;BME280;59446;52.192;4.628;2023-03-04T08:37:15;102757.91;;;17.36;47.99
71601;BME280;59446;52.192;4.628;2023-03-04T08:39:40;102760.53;;;17.36;47.96
71601;BME280;59446;52.192;4.628;2023-03-04T08:42:06;102757.03;;;17.36;48.05
71601;BME280;59446;52.192;4.628;2023-03-04T08:44:31;102756.81;;;17.43;47.61
71601;BME280;59446;52.192;4.628;2023-03-04T08:46:56;102749.44;;;17.59;47.33
71601;BME280;59446;52.192;4.628;2023-03-04T08:49:22;102746.63;;;17.65;47.36
71601;BME280;59446;52.192;4.628;2023-03-04T08:51:47;102756.19;;;17.69;47.55
71601;BME280;59446;52.192;4.628;2023-03-04T08:54:13;102751.84;;;17.67;47.62
71601;BME280;59446;52.192;4.628;2023-03-04T08:56:39;102748.47;;;17.62;47.63
71601;BME280;59446;52.192;4.628;2023-03-04T08:59:05;102749.47;;;17.57;48.07
71601;BME280;59446;52.192;4.628;2023-03-04T09:01:30;102753.09;;;17.52;48.40
71601;BME280;59446;52.192;4.628;2023-03-04T09:03:55;102741.00;;;17.45;48.29
71601;BME280;59446;52.192;4.628;2023-03-04T09:06:21;102749.00;;;17.40;48.40
71601;BME280;59446;52.192;4.628;2023-03-04T09:08:46;102741.13;;;17.40;48.60
71601;BME280;59446;52.192;4.628;2023-03-04T09:11:12;102749.88;;;17.41;48.85
71601;BME280;59446;52.192;4.628;2023-03-04T09:13:38;102742.97;;;17.37;48.89
71601;BME280;59446;52.192;4.628;2023-03-04T09:16:09;102746.44;;;17.39;49.05
71601;BME280;59446;52.192;4.628;2023-03-04T09:18:34;102750.13;;;17.32;48.73
71601;BME280;59446;52.192;4.628;2023-03-04T09:21:00;102751.09;;;17.29;48.72
71601;BME280;59446;52.192;4.628;2023-03-04T09:23:25;102750.22;;;17.28;49.20
71601;BME280;59446;52.192;4.628;2023-03-04T09:25:51;102753.75;;;17.27;48.99
71601;BME280;59446;52.192;4.628;2023-03-04T09:28:17;102744.09;;;17.28;48.85
71601;BME280;59446;52.192;4.628;2023-03-04T09:30:43;102744.94;;;17.28;48.92
71601;BME280;59446;52.192;4.628;2023-03-04T09:33:09;102747.63;;;17.27;49.24
71601;BME280;59446;52.192;4.628;2023-03-04T09:35:35;102745.09;;;17.22;48.96
71601;BME280;59446;52.192;4.628;2023-03-04T09:38:01;102747.81;;;17.19;49.30
71601;BME280;59446;52.192;4.628;2023-03-04T09:40:36;102742.44;;;17.24;49.02
71601;BME280;59446;52.192;4.628;2023-03-04T09:43:04;102744.88;;;17.32;49.32
71601;BME280;59446;52.192;4.628;2023-03-04T09:45:42;102741.06;;;17.42;48.92
71601;BME280;59446;52.192;4.628;2023-03-04T09:48:15;102741.00;;;17.45;49.09
71601;BME280;59446;52.192;4.628;2023-03-04T09:57:14;102737.31;;;17.52;49.02
71601;BME280;59446;52.192;4.628;2023-03-04T09:59:54;102736.38;;;17.54;48.86
71601;BME280;59446;52.192;4.628;2023-03-04T10:02:31;102733.72;;;17.56;48.77
71601;BME280;59446;52.192;4.628;2023-03-04T10:05:05;102728.31;;;17.61;48.56
71601;BME280;59446;52.192;4.628;2023-03-04T10:07:37;102730.94;;;17.61;48.58
71601;BME280;59446;52.192;4.628;2023-03-04T10:10:18;102728.34;;;17.59;48.84
71601;BME280;59446;52.192;4.628;2023-03-04T10:12:47;102726.44;;;17.64;48.63
71601;BME280;59446;52.192;4.628;2023-03-04T10:15:37;102727.22;;;17.69;48.59
71601;BME280;59446;52.192;4.628;2023-03-04T10:18:15;102726.34;;;17.67;48.70
71601;BME280;59446;52.192;4.628;2023-03-04T10:23:33;102724.59;;;17.68;48.83
71601;BME280;59446;52.192;4.628;2023-03-04T10:26:01;102722.81;;;17.70;48.75
71601;BME280;59446;52.192;4.628;2023-03-04T10:28:35;102716.69;;;17.68;48.88
71601;BME280;59446;52.192;4.628;2023-03-04T10:33:48;102721.09;;;17.67;49.07
71601;BME280;59446;52.192;4.628;2023-03-04T10:36:52;102708.72;;;17.71;48.94
71601;BME280;59446;52.192;4.628;2023-03-04T10:39:29;102721.94;;;17.69;48.91
71601;BME280;59446;52.192;4.628;2023-03-04T10:42:04;102722.84;;;17.67;48.85
71601;BME280;59446;52.192;4.628;2023-03-04T10:44:32;102723.78;;;17.66;49.17
71601;BME280;59446;52.192;4.628;2023-03-04T10:46:58;102715.88;;;17.66;49.31
71601;BME280;59446;52.192;4.628;2023-03-04T10:49:25;102718.53;;;17.64;49.20
71601;BME280;59446;52.192;4.628;2023-03-04T10:52:02;102717.78;;;17.61;49.57
71601;BME280;59446;52.192;4.628;2023-03-04T10:54:40;102727.41;;;17.62;49.10
71601;BME280;59446;52.192;4.628;2023-03-04T10:57:36;102720.44;;;17.59;49.45
71601;BME280;59446;52.192;4.628;2023-03-04T11:00:07;102718.81;;;17.55;49.58
71601;BME280;59446;52.192;4.628;2023-03-04T11:02:45;102718.88;;;17.52;49.54
71601;BME280;59446;52.192;4.628;2023-03-04T11:07:41;102717.97;;;17.53;49.35
71601;BME280;59446;52.192;4.628;2023-03-04T11:12:34;102704.72;;;17.56;49.60
71601;BME280;59446;52.192;4.628;2023-03-04T11:15:00;102706.50;;;17.55;49.62
71601;BME280;59446;52.192;4.628;2023-03-04T11:17:29;102707.50;;;17.50;49.33
71601;BME280;59446;52.192;4.628;2023-03-04T11:22:38;102713.75;;;17.46;50.01
71601;BME280;59446;52.192;4.628;2023-03-04T11:25:24;102711.09;;;17.46;49.91
71601;BME280;59446;52.192;4.628;2023-03-04T11:27:54;102705.94;;;17.43;49.89
71601;BME280;59446;52.192;4.628;2023-03-04T11:30:47;102699.78;;;17.42;49.91
71601;BME280;59446;52.192;4.628;2023-03-04T11:33:35;102700.66;;;17.43;49.96
71601;BME280;59446;52.192;4.628;2023-03-04T11:38:50;102697.25;;;17.39;50.09
71601;BME280;59446;52.192;4.628;2023-03-04T11:41:20;102702.38;;;17.44;49.83
71601;BME280;59446;52.192;4.628;2023-03-04T11:43:49;102691.81;;;17.45;49.87
71601;BME280;59446;52.192;4.628;2023-03-04T11:51:36;102680.53;;;17.40;49.67
71601;BME280;59446;52.192;4.628;2023-03-04T11:56:53;102676.09;;;17.42;49.87
71601;BME280;59446;52.192;4.628;2023-03-04T12:02:18;102672.72;;;17.37;49.96
71601;BME280;59446;52.192;4.628;2023-03-04T12:08:01;102672.69;;;17.39;49.98
71601;BME280;59446;52.192;4.628;2023-03-04T12:13:46;102676.03;;;17.44;49.95
71601;BME280;59446;52.192;4.628;2023-03-04T12:19:13;102668.31;;;17.38;50.25
71601;BME280;59446;52.192;4.628;2023-03-04T12:22:36;102666.47;;;17.41;50.16
71601;BME280;59446;52.192;4.628;2023-03-04T12:28:13;102659.44;;;17.42;50.06
71601;BME280;59446;52.192;4.628;2023-03-04T12:33:37;102653.53;;;17.34;50.05
71601;BME280;59446;52.192;4.628;2023-03-04T12:44:46;102638.63;;;17.33;50.17
71601;BME280;59446;52.192;4.628;2023-03-04T12:53:16;102634.22;;;17.33;50.25
71601;BME280;59446;52.192;4.628;2023-03-04T12:55:46;102635.09;;;17.34;50.18
71601;BME280;59446;52.192;4.628;2023-03-04T12:58:25;102627.09;;;17.37;50.23
71601;BME280;59446;52.192;4.628;2023-03-04T13:06:30;102625.28;;;17.39;49.92
71601;BME280;59446;52.192;4.628;2023-03-04T13:11:55;102618.38;;;17.35;50.20
71601;BME280;59446;52.192;4.628;2023-03-04T13:14:28;102614.84;;;17.36;50.31
71601;BME280;59446;52.192;4.628;2023-03-04T13:16:59;102617.47;;;17.36;50.19
71601;BME280;59446;52.192;4.628;2023-03-04T13:22:41;102607.03;;;17.33;50.68
71601;BME280;59446;52.192;4.628;2023-03-04T13:43:47;102585.59;;;17.45;50.97
71601;BME280;59446;52.192;4.628;2023-03-04T13:51:41;102586.59;;;17.41;51.07
71601;BME280;59446;52.192;4.628;2023-03-04T13:57:18;102592.72;;;17.41;51.46
71601;BME280;59446;52.192;4.628;2023-03-04T13:59:46;102593.59;;;17.42;51.55
71601;BME280;59446;52.192;4.628;2023-03-04T14:02:21;102591.78;;;17.44;51.07
71601;BME280;59446;52.192;4.628;2023-03-04T14:04:57;102587.50;;;17.40;51.38
71601;BME280;59446;52.192;4.628;2023-03-04T14:07:34;102587.50;;;17.40;50.85
71601;BME280;59446;52.192;4.628;2023-03-04T14:12:43;102583.91;;;17.42;50.66
71601;BME280;59446;52.192;4.628;2023-03-04T14:17:38;102583.16;;;17.39;50.64
71601;BME280;59446;52.192;4.628;2023-03-04T14:20:23;102584.00;;;17.39;50.79
71601;BME280;59446;52.192;4.628;2023-03-04T14:22:49;102574.38;;;17.38;50.96
71601;BME280;59446;52.192;4.628;2023-03-04T14:27:43;102575.03;;;17.46;50.46
71601;BME280;59446;52.192;4.628;2023-03-04T14:30:24;102569.78;;;17.45;50.97
71601;BME280;59446;52.192;4.628;2023-03-04T14:32:55;102564.38;;;17.51;50.86
71601;BME280;59446;52.192;4.628;2023-03-04T14:35:27;102564.31;;;17.52;50.94
71601;BME280;59446;52.192;4.628;2023-03-04T14:40:29;102570.44;;;17.53;51.25
71601;BME280;59446;52.192;4.628;2023-03-04T14:43:03;102558.13;;;17.55;50.82
71601;BME280;59446;52.192;4.628;2023-03-04T14:45:30;102557.28;;;17.53;50.94
71601;BME280;59446;52.192;4.628;2023-03-04T14:48:04;102556.41;;;17.52;50.76
71601;BME280;59446;52.192;4.628;2023-03-04T14:50:31;102546.78;;;17.51;50.60